createdAt,value
2023-04-15T00:00:23.099Z,54.63
2023-04-15T00:02:44.881Z,54.59
2023-04-15T00:05:07.142Z,54.79
2023-04-15T00:07:29.667Z,54.79
2023-04-15T00:09:55.165Z,54.78
2023-04-15T00:12:17.098Z,55.14
2023-04-15T00:14:40.072Z,55.25
2023-04-15T00:17:01.875Z,55.00
2023-04-15T00:19:24.692Z,54.94
2023-04-15T00:21:46.400Z,54.87
2023-04-15T00:24:08.418Z,55.23
2023-04-15T00:26:30.254Z,54.75
2023-04-15T00:28:52.220Z,55.08
2023-04-15T00:31:14.315Z,54.84
2023-04-15T00:33:36.793Z,55.31
2023-04-15T00:35:59.372Z,55.16
2023-04-15T00:38:21.063Z,55.42
2023-04-15T00:40:43.587Z,55.35
2023-04-15T00:43:05.743Z,55.63
2023-04-15T00:45:28.673Z,55.84
2023-04-15T00:47:51.978Z,56.17
2023-04-15T00:50:14.151Z,56.17
2023-04-15T00:52:36.229Z,56.47
2023-04-15T00:54:57.962Z,56.55
2023-04-15T00:57:22.483Z,56.53
2023-04-15T00:59:44.622Z,56.45
2023-04-15T01:02:08.597Z,56.75
2023-04-15T01:04:31.060Z,56.12
2023-04-15T01:06:53.140Z,56.73
2023-04-15T01:09:15.381Z,56.67
2023-04-15T01:11:37.584Z,56.23
2023-04-15T01:13:59.999Z,56.11
2023-04-15T01:16:22.150Z,56.08
2023-04-15T01:18:44.761Z,56.37
2023-04-15T01:21:07.990Z,55.89
2023-04-15T01:23:30.079Z,56.40
2023-04-15T01:25:53.560Z,56.25
2023-04-15T01:28:16.092Z,56.51
2023-04-15T01:30:38.484Z,56.28
2023-04-15T01:33:00.267Z,56.21
2023-04-15T01:35:22.614Z,56.49
2023-04-15T01:37:47.266Z,56.38
2023-04-15T01:40:12.150Z,57.00
2023-04-15T01:42:37.886Z,57.03
2023-04-15T01:44:59.631Z,57.40
2023-04-15T01:47:21.622Z,58.22
2023-04-15T01:49:44.010Z,58.58
2023-04-15T01:52:05.862Z,59.18
2023-04-15T01:54:28.432Z,59.44
2023-04-15T01:56:50.628Z,59.15
2023-04-15T01:59:14.057Z,59.29
2023-04-15T02:01:35.762Z,59.22
2023-04-15T02:03:57.985Z,59.77
2023-04-15T02:06:20.171Z,60.56
2023-04-15T02:08:43.394Z,61.38
2023-04-15T02:11:05.194Z,60.78
2023-04-15T02:13:27.077Z,61.16
2023-04-15T02:15:52.665Z,60.77
2023-04-15T02:18:16.756Z,60.75
2023-04-15T02:20:39.630Z,61.03
2023-04-15T02:23:01.981Z,61.50
2023-04-15T02:25:23.808Z,60.71
2023-04-15T02:27:46.109Z,60.17
2023-04-15T02:30:08.405Z,60.48
2023-04-15T02:32:30.285Z,60.39
2023-04-15T02:34:52.591Z,59.94
2023-04-15T02:37:14.733Z,59.74
2023-04-15T02:39:36.391Z,60.00
2023-04-15T02:42:00.120Z,59.70
2023-04-15T02:44:23.459Z,59.88
2023-04-15T02:46:50.839Z,60.28
2023-04-15T02:49:12.413Z,60.67
2023-04-15T02:51:34.014Z,61.21
2023-04-15T02:53:56.608Z,61.08
2023-04-15T02:56:19.469Z,61.68
2023-04-15T02:58:42.871Z,61.80
2023-04-15T03:01:05.071Z,62.24
2023-04-15T03:03:28.288Z,62.53
2023-04-15T03:05:49.985Z,62.57
2023-04-15T03:08:12.607Z,62.94
2023-04-15T03:10:34.248Z,63.40
2023-04-15T03:12:56.802Z,63.37
2023-04-15T03:15:19.502Z,62.78
2023-04-15T03:17:44.507Z,62.82
2023-04-15T03:20:08.029Z,63.12
2023-04-15T03:22:30.001Z,63.20
2023-04-15T03:24:52.236Z,63.57
2023-04-15T03:27:14.182Z,64.55
2023-04-15T03:29:36.677Z,65.03
2023-04-15T03:31:58.469Z,65.05
2023-04-15T03:34:21.466Z,64.98
2023-04-15T03:36:43.363Z,65.23
2023-04-15T03:39:05.560Z,64.80
2023-04-15T03:41:27.154Z,64.73
2023-04-15T03:43:48.754Z,64.72
2023-04-15T03:46:10.695Z,65.38
2023-04-15T03:48:32.384Z,65.35
2023-04-15T03:50:54.114Z,66.05
2023-04-15T03:53:16.486Z,66.15
2023-04-15T03:55:38.361Z,66.14
2023-04-15T03:58:00.210Z,66.14
2023-04-15T04:00:22.151Z,66.32
2023-04-15T04:02:46.232Z,65.39
2023-04-15T04:05:08.899Z,66.49
2023-04-15T04:07:31.003Z,65.70
2023-04-15T04:09:52.803Z,66.34
2023-04-15T04:12:14.488Z,66.75
2023-04-15T04:14:36.118Z,67.46
2023-04-15T04:16:57.837Z,67.48
2023-04-15T04:19:20.319Z,67.53
2023-04-15T04:21:41.965Z,68.22
2023-04-15T04:24:03.704Z,68.61
2023-04-15T04:26:25.478Z,68.40
2023-04-15T04:28:47.084Z,68.38
2023-04-15T04:31:08.953Z,68.47
2023-04-15T04:33:30.718Z,67.77
2023-04-15T04:35:52.492Z,68.03
2023-04-15T04:38:14.446Z,68.24
2023-04-15T04:40:36.464Z,67.99
2023-04-15T04:42:58.729Z,68.55
2023-04-15T04:45:20.920Z,68.39
2023-04-15T04:47:43.050Z,68.74
2023-04-15T04:50:05.621Z,68.85
2023-04-15T04:52:27.387Z,69.06
2023-04-15T04:54:49.089Z,68.51
2023-04-15T04:57:10.856Z,68.57
2023-04-15T04:59:33.208Z,68.86
2023-04-15T05:01:56.081Z,68.54
2023-04-15T05:04:18.230Z,68.40
2023-04-15T05:06:40.850Z,68.13
2023-04-15T05:09:03.757Z,68.12
2023-04-15T05:11:26.151Z,68.46
2023-04-15T05:13:48.740Z,68.81
2023-04-15T05:16:11.999Z,69.11
2023-04-15T05:18:34.686Z,69.01
2023-04-15T05:20:57.567Z,69.72
2023-04-15T05:23:19.744Z,69.47
2023-04-15T05:25:42.105Z,69.11
2023-04-15T05:28:04.226Z,69.76
2023-04-15T05:30:26.778Z,70.34
2023-04-15T05:32:48.860Z,69.85
2023-04-15T05:35:10.900Z,70.14
2023-04-15T05:37:33.358Z,71.15
2023-04-15T05:39:55.452Z,71.11
2023-04-15T05:42:17.917Z,71.10
2023-04-15T05:44:40.392Z,70.77
2023-04-15T05:47:04.019Z,71.02
2023-04-15T05:49:26.515Z,71.11
2023-04-15T05:51:49.039Z,70.80
2023-04-15T05:54:11.254Z,70.23
2023-04-15T05:56:33.700Z,70.59
2023-04-15T05:58:55.941Z,70.65
2023-04-15T06:01:18.722Z,70.15
2023-04-15T06:03:41.125Z,70.04
2023-04-15T06:06:03.677Z,70.17
2023-04-15T06:08:25.274Z,70.43
2023-04-15T06:10:47.213Z,70.55
2023-04-15T06:13:08.953Z,70.43
2023-04-15T06:15:31.253Z,70.50
2023-04-15T06:17:52.904Z,70.40
2023-04-15T06:20:14.848Z,70.58
2023-04-15T06:22:38.022Z,70.26
2023-04-15T06:24:59.749Z,70.74
2023-04-15T06:27:23.018Z,70.20
2023-04-15T06:29:44.887Z,70.49
2023-04-15T06:32:06.896Z,70.91
2023-04-15T06:34:28.506Z,70.50
2023-04-15T06:36:50.237Z,70.55
2023-04-15T06:39:11.853Z,70.54
2023-04-15T06:41:34.232Z,70.60
2023-04-15T06:43:55.974Z,70.31
2023-04-15T06:46:17.595Z,70.08
2023-04-15T06:48:39.297Z,69.90
2023-04-15T06:51:01.215Z,69.74
2023-04-15T06:53:22.972Z,69.55
2023-04-15T06:55:44.702Z,69.76
2023-04-15T06:58:06.415Z,69.34
2023-04-15T07:00:28.751Z,69.33
2023-04-15T07:02:51.458Z,69.29
2023-04-15T07:05:13.184Z,69.23
2023-04-15T07:07:35.080Z,69.36
2023-04-15T07:09:57.208Z,68.72
2023-04-15T07:12:18.955Z,68.88
2023-04-15T07:14:40.572Z,69.00
2023-04-15T07:17:02.691Z,68.93
2023-04-15T07:19:24.502Z,68.91
2023-04-15T07:21:47.674Z,68.69
2023-04-15T07:24:10.505Z,68.74
2023-04-15T07:26:32.205Z,68.89
2023-04-15T07:28:53.845Z,68.74
2023-04-15T07:31:16.585Z,68.07
2023-04-15T07:33:38.428Z,67.92
2023-04-15T07:36:00.147Z,67.98
2023-04-15T07:38:22.172Z,67.28
2023-04-15T07:40:44.025Z,67.24
2023-04-15T07:43:05.991Z,66.96
2023-04-15T07:45:27.836Z,67.43
2023-04-15T07:47:50.909Z,67.26
2023-04-15T07:50:12.592Z,67.14
2023-04-15T07:52:39.109Z,67.34
2023-04-15T07:55:00.841Z,67.35
2023-04-15T07:57:22.574Z,67.32
2023-04-15T07:59:44.153Z,67.37
2023-04-15T08:02:05.843Z,67.31
2023-04-15T08:04:28.178Z,67.33
2023-04-15T08:06:50.328Z,67.06
2023-04-15T08:09:11.975Z,66.85
2023-04-15T08:11:33.817Z,66.68
2023-04-15T08:13:55.501Z,66.75
2023-04-15T08:16:23.525Z,65.69
2023-04-15T08:18:47.383Z,65.23
2023-04-15T08:21:09.406Z,64.89
2023-04-15T08:23:32.784Z,64.86
2023-04-15T08:25:54.463Z,63.75
2023-04-15T08:28:17.290Z,63.47
2023-04-15T08:30:38.936Z,63.51
2023-04-15T08:33:00.751Z,63.43
2023-04-15T08:35:22.383Z,61.99
2023-04-15T08:37:44.084Z,61.39
2023-04-15T08:40:06.908Z,60.95
2023-04-15T08:42:36.948Z,61.32
2023-04-15T08:45:01.776Z,60.68
2023-04-15T08:47:31.712Z,59.87
2023-04-15T08:49:55.629Z,60.07
2023-04-15T08:52:17.572Z,60.15
2023-04-15T08:54:39.819Z,59.65
2023-04-15T08:57:02.540Z,59.32
2023-04-15T08:59:24.478Z,58.30
2023-04-15T09:01:46.500Z,57.26
2023-04-15T09:04:08.900Z,57.52
2023-04-15T09:06:31.098Z,57.71
2023-04-15T09:08:53.198Z,57.57
2023-04-15T09:11:14.840Z,57.69
2023-04-15T09:13:37.005Z,57.07
2023-04-15T09:15:58.699Z,56.76
2023-04-15T09:18:32.476Z,57.56
2023-04-15T09:20:54.296Z,56.34
2023-04-15T09:23:17.557Z,55.40
2023-04-15T09:25:42.520Z,55.83
2023-04-15T09:28:04.664Z,56.08
2023-04-15T09:30:28.974Z,55.66
2023-04-15T09:32:54.158Z,56.07
2023-04-15T09:35:15.971Z,55.37
2023-04-15T09:37:37.685Z,53.80
2023-04-15T09:39:59.327Z,53.97
2023-04-15T09:42:24.623Z,53.64
2023-04-15T09:44:46.552Z,52.87
2023-04-15T09:47:08.149Z,53.50
2023-04-15T09:49:29.873Z,54.06
2023-04-15T09:52:01.702Z,53.11
2023-04-15T09:54:36.929Z,52.11
2023-04-15T09:57:06.405Z,52.13
2023-04-15T09:59:28.278Z,51.53
2023-04-15T10:01:50.609Z,52.16
2023-04-15T10:04:12.901Z,52.73
2023-04-15T10:06:35.846Z,52.62
2023-04-15T10:08:59.007Z,52.12
2023-04-15T10:11:24.043Z,50.88
2023-04-15T10:13:48.617Z,51.55
2023-04-15T10:16:14.290Z,51.34
2023-04-15T10:18:42.701Z,51.78
2023-04-15T10:21:06.058Z,51.95
2023-04-15T10:23:28.177Z,51.31
2023-04-15T10:25:54.566Z,49.97
2023-04-15T10:28:17.038Z,49.63
2023-04-15T10:30:38.866Z,49.88
2023-04-15T10:33:06.025Z,50.16
2023-04-15T10:35:30.772Z,50.59
2023-04-15T10:37:52.547Z,49.20
2023-04-15T10:40:34.596Z,48.72
2023-04-15T10:42:56.952Z,49.91
2023-04-15T10:45:19.400Z,51.06
2023-04-15T10:47:43.841Z,51.16
2023-04-15T10:50:06.089Z,50.56
2023-04-15T10:52:29.419Z,51.01
2023-04-15T10:55:16.077Z,50.98
2023-04-15T10:57:40.735Z,49.90
2023-04-15T11:00:12.847Z,50.13
2023-04-15T11:02:53.384Z,49.84
2023-04-15T11:05:17.563Z,49.53
2023-04-15T11:07:52.737Z,49.23
2023-04-15T11:10:14.299Z,48.42
2023-04-15T11:12:37.241Z,49.23
2023-04-15T11:14:58.995Z,49.32
2023-04-15T11:17:29.033Z,49.46
2023-04-15T11:19:51.165Z,47.75
2023-04-15T11:22:12.995Z,48.49
2023-04-15T11:24:34.806Z,48.78
2023-04-15T11:27:01.923Z,49.25
2023-04-15T11:29:31.310Z,49.06
2023-04-15T11:31:52.926Z,49.39
2023-04-15T11:34:22.999Z,48.90
2023-04-15T11:36:44.720Z,47.32
2023-04-15T11:39:07.559Z,47.31
2023-04-15T11:41:29.358Z,47.53
2023-04-15T11:43:52.372Z,48.13
2023-04-15T11:46:14.143Z,48.38
2023-04-15T11:48:36.794Z,48.77
2023-04-15T11:51:05.292Z,48.84
2023-04-15T11:53:56.870Z,47.58
2023-04-15T11:56:22.057Z,47.27
2023-04-15T11:58:44.778Z,47.42
2023-04-15T12:01:07.588Z,47.07
2023-04-15T12:03:50.374Z,46.31
2023-04-15T12:06:21.281Z,45.99
2023-04-15T12:08:55.817Z,45.47
2023-04-15T12:11:19.340Z,44.84
2023-04-15T12:13:47.016Z,45.07
2023-04-15T12:16:08.817Z,45.14
2023-04-15T12:18:30.678Z,45.58
2023-04-15T12:20:52.492Z,45.74
2023-04-15T12:23:20.126Z,46.47
2023-04-15T12:25:42.023Z,45.33
2023-04-15T12:28:12.100Z,45.62
2023-04-15T12:30:34.162Z,45.03
2023-04-15T12:32:56.684Z,44.93
2023-04-15T12:35:21.603Z,44.90
2023-04-15T12:37:43.289Z,45.37
2023-04-15T12:40:08.921Z,46.03
2023-04-15T12:42:30.602Z,45.70
2023-04-15T12:44:52.274Z,45.11
2023-04-15T12:47:14.603Z,44.35
2023-04-15T12:49:36.408Z,44.14
2023-04-15T12:52:00.742Z,44.16
2023-04-15T12:54:23.434Z,44.65
2023-04-15T12:56:48.277Z,43.45
2023-04-15T12:59:10.072Z,43.97
2023-04-15T13:01:32.097Z,43.82
2023-04-15T13:03:54.215Z,44.22
2023-04-15T13:06:16.183Z,44.14
2023-04-15T13:08:42.585Z,43.27
2023-04-15T13:11:07.275Z,43.00
2023-04-15T13:13:29.126Z,42.84
2023-04-15T13:15:51.109Z,43.04
2023-04-15T13:18:13.191Z,43.78
2023-04-15T13:20:34.968Z,44.00
2023-04-15T13:22:56.921Z,43.55
2023-04-15T13:25:19.541Z,43.68
2023-04-15T13:27:41.278Z,44.28
2023-04-15T13:30:03.838Z,44.11
2023-04-15T13:32:26.465Z,44.46
2023-04-15T13:34:48.249Z,44.52
2023-04-15T13:37:10.016Z,44.05
2023-04-15T13:39:32.056Z,44.04
2023-04-15T13:41:53.781Z,44.44
2023-04-15T13:44:15.549Z,44.24
2023-04-15T13:46:39.603Z,44.71
2023-04-15T13:49:01.371Z,44.63
2023-04-15T13:51:23.201Z,45.16
2023-04-15T13:53:45.282Z,45.68
2023-04-15T13:56:08.791Z,45.47
2023-04-15T13:58:31.307Z,45.24
2023-04-15T14:00:53.320Z,45.40
2023-04-15T14:03:15.332Z,46.61
2023-04-15T14:05:38.108Z,45.98
2023-04-15T14:08:00.600Z,45.70
2023-04-15T14:10:22.479Z,46.33
2023-04-15T14:12:44.347Z,46.99
2023-04-15T14:15:06.992Z,46.09
2023-04-15T14:17:29.354Z,46.06
2023-04-15T14:19:51.377Z,45.98
2023-04-15T14:22:13.791Z,46.67
2023-04-15T14:24:36.894Z,47.21
2023-04-15T14:27:00.269Z,47.63
2023-04-15T14:29:22.992Z,46.97
2023-04-15T14:32:03.927Z,46.93
2023-04-15T14:34:27.457Z,46.63
2023-04-15T14:36:49.899Z,46.47
2023-04-15T14:39:14.395Z,46.88
2023-04-15T14:41:37.199Z,46.65
2023-04-15T14:43:59.816Z,47.40
2023-04-15T14:46:22.829Z,47.08
2023-04-15T14:48:45.637Z,46.87
2023-04-15T14:51:07.680Z,47.13
2023-04-15T14:53:29.867Z,46.72
2023-04-15T14:55:52.064Z,46.83
2023-04-15T14:58:14.029Z,47.26
2023-04-15T15:00:40.819Z,46.98
2023-04-15T15:03:03.240Z,47.57
2023-04-15T15:05:26.277Z,48.18
2023-04-15T15:07:48.539Z,48.54
2023-04-15T15:10:10.969Z,49.33
2023-04-15T15:12:33.716Z,50.05
2023-04-15T15:14:56.074Z,50.86
2023-04-15T15:17:18.659Z,51.06
2023-04-15T15:19:40.669Z,51.29
2023-04-15T15:22:03.736Z,52.02
2023-04-15T15:24:25.606Z,52.52
2023-04-15T15:26:47.443Z,51.62
2023-04-15T15:29:09.476Z,52.05
2023-04-15T15:31:31.407Z,52.28
2023-04-15T15:33:53.387Z,53.39
2023-04-15T15:36:16.306Z,53.30
2023-04-15T15:38:38.353Z,53.88
2023-04-15T15:41:00.189Z,54.76
2023-04-15T15:43:21.947Z,54.83
2023-04-15T15:45:43.811Z,54.94
2023-04-15T15:48:06.305Z,55.47
2023-04-15T15:50:28.579Z,55.52
2023-04-15T15:52:50.793Z,55.29
2023-04-15T15:55:12.509Z,55.52
2023-04-15T15:57:34.217Z,55.62
2023-04-15T16:00:10.392Z,55.89
2023-04-15T16:02:59.806Z,56.36
2023-04-15T16:05:16.630Z,57.06
2023-04-15T16:07:38.379Z,57.65
2023-04-15T16:10:00.441Z,57.74
2023-04-15T16:12:22.303Z,58.27
2023-04-15T16:14:44.046Z,58.63
2023-04-15T16:17:05.813Z,58.87
2023-04-15T16:19:27.678Z,59.12
2023-04-15T16:21:49.954Z,59.26
2023-04-15T16:24:11.742Z,59.43
2023-04-15T16:26:34.416Z,59.85
2023-04-15T16:28:56.235Z,60.16
2023-04-15T16:31:18.079Z,60.08
2023-04-15T16:33:40.011Z,60.41
2023-04-15T16:36:01.758Z,59.83
2023-04-15T16:38:23.419Z,59.79
2023-04-15T16:40:46.049Z,59.83
2023-04-15T16:43:08.294Z,60.14
2023-04-15T16:45:30.131Z,59.99
2023-04-15T16:47:52.002Z,60.22
2023-04-15T16:50:14.702Z,60.59
2023-04-15T16:52:36.883Z,60.80
2023-04-15T16:54:58.791Z,60.89
2023-04-15T16:57:20.751Z,61.16
2023-04-15T16:59:43.163Z,60.94
2023-04-15T17:02:04.933Z,60.61
2023-04-15T17:04:28.636Z,60.60
2023-04-15T17:06:51.258Z,59.96
2023-04-15T17:09:12.881Z,60.15
2023-04-15T17:11:35.175Z,60.23
2023-04-15T17:13:56.954Z,60.33
2023-04-15T17:16:18.724Z,60.58
2023-04-15T17:18:40.733Z,60.71
2023-04-15T17:21:02.541Z,61.30
2023-04-15T17:23:26.166Z,61.60
2023-04-15T17:25:47.984Z,62.01
2023-04-15T17:28:09.729Z,61.88
2023-04-15T17:30:33.071Z,62.21
2023-04-15T17:32:55.043Z,62.23
2023-04-15T17:35:17.185Z,62.72
2023-04-15T17:37:39.194Z,62.87
2023-04-15T17:40:00.991Z,63.25
2023-04-15T17:42:23.113Z,63.03
2023-04-15T17:44:46.007Z,63.58
2023-04-15T17:47:07.693Z,63.89
2023-04-15T17:49:30.765Z,64.02
2023-04-15T17:51:54.898Z,64.07
2023-04-15T17:54:16.888Z,64.20
2023-04-15T17:56:38.622Z,64.58
2023-04-15T17:59:02.481Z,64.51
2023-04-15T18:01:24.602Z,64.86
2023-04-15T18:03:46.627Z,64.96
2023-04-15T18:06:08.535Z,65.27
2023-04-15T18:08:31.450Z,65.32
2023-04-15T18:10:53.156Z,65.70
2023-04-15T18:13:15.979Z,65.86
2023-04-15T18:15:37.782Z,65.77
2023-04-15T18:18:00.347Z,66.14
2023-04-15T18:20:22.087Z,66.39
2023-04-15T18:22:43.920Z,66.33
2023-04-15T18:25:06.928Z,66.31
2023-04-15T18:27:32.194Z,66.50
2023-04-15T18:29:54.066Z,66.71
2023-04-15T18:32:15.835Z,66.87
2023-04-15T18:34:37.828Z,67.19
2023-04-15T18:37:01.537Z,67.54
2023-04-15T18:39:23.509Z,68.01
2023-04-15T18:41:45.311Z,68.28
2023-04-15T18:44:07.161Z,68.50
2023-04-15T18:46:29.285Z,69.09
2023-04-15T18:48:51.366Z,69.10
2023-04-15T18:51:13.295Z,69.41
2023-04-15T18:53:37.087Z,69.68
2023-04-15T18:56:01.710Z,69.77
2023-04-15T18:58:23.812Z,70.52
2023-04-15T19:00:46.496Z,70.45
2023-04-15T19:03:08.388Z,70.89
2023-04-15T19:05:31.013Z,70.65
2023-04-15T19:07:52.783Z,71.21
2023-04-15T19:10:14.435Z,71.17
2023-04-15T19:12:36.996Z,71.56
2023-04-15T19:14:58.886Z,71.60
2023-04-15T19:17:21.295Z,71.38
2023-04-15T19:19:43.659Z,72.15
2023-04-15T19:22:06.180Z,71.89
2023-04-15T19:24:27.992Z,72.29
2023-04-15T19:26:51.142Z,72.07
2023-04-15T19:29:12.864Z,72.23
2023-04-15T19:31:34.597Z,72.16
2023-04-15T19:33:56.770Z,72.42
2023-04-15T19:36:18.429Z,72.40
2023-04-15T19:38:40.359Z,72.81
2023-04-15T19:41:02.045Z,72.67
2023-04-15T19:43:25.156Z,72.88
2023-04-15T19:45:49.487Z,72.87
2023-04-15T19:48:11.324Z,72.87
2023-04-15T19:50:33.544Z,73.17
2023-04-15T19:52:56.484Z,73.13
2023-04-15T19:55:18.477Z,73.22
2023-04-15T19:57:40.926Z,73.40
2023-04-15T20:00:02.539Z,73.35
2023-04-15T20:02:29.243Z,73.57
2023-04-15T20:04:51.063Z,73.47
2023-04-15T20:07:12.679Z,74.02
2023-04-15T20:09:34.325Z,73.91
2023-04-15T20:12:46.715Z,74.22
2023-04-15T20:14:38.123Z,74.24
2023-04-15T20:17:00.657Z,74.27
2023-04-15T20:19:22.355Z,74.74
2023-04-15T20:21:44.393Z,74.74
2023-04-15T20:24:07.044Z,74.99
2023-04-15T20:26:28.860Z,75.09
2023-04-15T20:28:51.827Z,75.05
2023-04-15T20:31:13.555Z,74.81
2023-04-15T20:33:35.347Z,74.78
2023-04-15T20:35:57.079Z,74.85
2023-04-15T20:38:20.426Z,75.01
2023-04-15T20:40:42.428Z,74.81
2023-04-15T20:43:04.181Z,75.33
2023-04-15T20:45:26.770Z,75.00
2023-04-15T20:47:48.986Z,75.03
2023-04-15T20:50:11.730Z,74.98
2023-04-15T20:52:33.450Z,74.97
2023-04-15T20:54:55.641Z,75.01
2023-04-15T20:57:17.645Z,74.88
2023-04-15T20:59:39.301Z,75.04
2023-04-15T21:02:01.002Z,75.07
2023-04-15T21:04:24.396Z,74.63
2023-04-15T21:06:46.172Z,74.58
2023-04-15T21:09:08.686Z,74.59
2023-04-15T21:11:53.305Z,74.59
2023-04-15T21:14:17.088Z,74.62
2023-04-15T21:16:39.670Z,74.94
2023-04-15T21:19:01.371Z,75.00
2023-04-15T21:21:23.056Z,75.17
2023-04-15T21:23:44.795Z,74.96
2023-04-15T21:26:06.440Z,74.92
2023-04-15T21:28:28.447Z,75.02
2023-04-15T21:30:50.697Z,74.83
2023-04-15T21:33:12.383Z,75.06
2023-04-15T21:35:34.163Z,74.96
2023-04-15T21:37:56.255Z,75.28
2023-04-15T21:40:19.416Z,75.28
2023-04-15T21:42:41.676Z,75.29
2023-04-15T21:45:04.680Z,75.26
2023-04-15T21:47:26.852Z,75.15
2023-04-15T21:49:48.817Z,75.53
2023-04-15T21:52:10.673Z,75.50
2023-04-15T21:54:33.405Z,75.53
2023-04-15T21:56:55.195Z,75.63
2023-04-15T21:59:16.889Z,75.82
2023-04-15T22:01:39.457Z,75.75
2023-04-15T22:04:01.255Z,75.74
2023-04-15T22:06:23.062Z,75.56
2023-04-15T22:08:56.062Z,75.64
2023-04-15T22:11:36.604Z,75.56
2023-04-15T22:14:09.096Z,75.13
2023-04-15T22:16:41.084Z,75.72
2023-04-15T22:19:12.950Z,75.46
2023-04-15T22:21:44.692Z,75.37
2023-04-15T22:24:38.255Z,75.57
2023-04-15T22:27:08.601Z,75.42
2023-04-15T22:29:40.405Z,75.59
2023-04-15T22:32:12.203Z,75.49
2023-04-15T22:34:44.755Z,75.27
2023-04-15T22:37:16.522Z,75.62
2023-04-15T22:39:48.242Z,75.53
2023-04-15T22:42:20.807Z,75.35
2023-04-15T22:44:52.681Z,75.41
2023-04-15T22:47:24.439Z,75.58
2023-04-15T22:49:56.171Z,75.75
2023-04-15T22:52:31.008Z,76.04
2023-04-15T22:55:03.712Z,76.22
2023-04-15T22:57:35.433Z,76.01
2023-04-15T23:00:08.058Z,76.36
2023-04-15T23:02:40.040Z,76.68
2023-04-15T23:05:12.699Z,76.88
2023-04-15T23:07:45.104Z,77.01
2023-04-15T23:10:16.882Z,77.04
2023-04-15T23:12:48.951Z,77.54
2023-04-15T23:15:21.365Z,77.29
2023-04-15T23:17:53.123Z,77.05
2023-04-15T23:20:24.909Z,77.50
2023-04-15T23:22:56.621Z,77.57
2023-04-15T23:25:28.423Z,77.58
2023-04-15T23:28:00.355Z,77.84
2023-04-15T23:30:32.015Z,77.79
2023-04-15T23:33:05.081Z,77.91
2023-04-15T23:35:37.796Z,77.98
2023-04-15T23:38:09.750Z,78.07
2023-04-15T23:40:41.563Z,77.99
2023-04-15T23:43:13.460Z,78.07
2023-04-15T23:45:45.971Z,78.27
2023-04-15T23:48:18.096Z,78.24
2023-04-15T23:50:50.337Z,78.31
2023-04-15T23:53:22.115Z,78.48
2023-04-15T23:55:53.763Z,78.97
2023-04-15T23:58:25.805Z,79.03
